Time;durP1;ratioP1;P1;durP2;ratioP2;P2;SDS_P1;SDS_P2;PMS_P1;PMS_P2;Temp;Humidity;BMP_temperature;BMP_pressure;BME280_temperature;BME280_humidity;BME280_pressure;Samples;Min_cycle;Max_cycle;Signal;HPM_P1;HPM_P2
2022/11/12 00:01:12;;;;;;;13.05;10.40;;;;;;;12.69;57.37;102804.69;5090796;28;20402;-79
2022/11/12 00:03:37;;;;;;;13.93;10.07;;;;;;;12.76;57.21;102789.03;5089127;28;20385;-77
2022/11/12 00:06:03;;;;;;;15.20;10.40;;;;;;;12.75;57.12;102790.88;5087365;28;20405;-78
2022/11/12 00:08:28;;;;;;;14.83;9.83;;;;;;;12.70;57.42;102808.22;5078374;28;20734;-78
2022/11/12 00:10:54;;;;;;;13.60;9.87;;;;;;;12.80;57.29;102809.09;5088354;28;20397;-78
2022/11/12 00:13:19;;;;;;;14.37;10.13;;;;;;;12.85;57.28;102809.53;5084205;28;20383;-78
2022/11/12 00:15:46;;;;;;;13.03;9.67;;;;;;;12.73;57.24;102813.25;5091520;28;20421;-79
2022/11/12 00:18:11;;;;;;;13.88;10.40;;;;;;;12.59;57.78;102815.28;5085694;28;20444;-78
2022/11/12 00:20:37;;;;;;;13.03;9.70;;;;;;;12.50;58.01;102816.09;5093433;28;20398;-78
2022/11/12 00:23:03;;;;;;;13.97;10.33;;;;;;;12.52;57.98;102819.47;5088682;28;20394;-79
2022/11/12 00:25:28;;;;;;;14.63;10.95;;;;;;;12.55;58.03;102815.69;5091427;28;20478;-78
2022/11/12 00:28:03;;;;;;;14.27;9.80;;;;;;;12.49;57.94;102818.88;5092696;28;20511;-79
2022/11/12 00:30:29;;;;;;;15.10;10.30;;;;;;;12.49;58.03;102808.22;5091604;28;20370;-79
2022/11/12 00:32:54;;;;;;;14.57;10.47;;;;;;;12.71;57.57;102807.22;5081154;28;20400;-77
2022/11/12 00:35:20;;;;;;;14.35;10.95;;;;;;;12.65;57.64;102815.75;5092287;28;20397;-78
2022/11/12 00:37:45;;;;;;;14.33;10.90;;;;;;;12.70;57.13;102813.53;5092892;28;20430;-80
2022/11/12 00:40:11;;;;;;;14.25;10.43;;;;;;;12.74;56.94;102805.16;5090327;28;20417;-78
2022/11/12 00:42:37;;;;;;;15.75;10.55;;;;;;;12.78;57.02;102808.38;5091236;28;20374;-79
2022/11/12 00:45:02;;;;;;;15.40;10.38;;;;;;;12.85;56.79;102798.06;5090749;28;20386;-79
2022/11/12 00:47:28;;;;;;;14.00;10.67;;;;;;;13.00;56.33;102802.88;5091054;28;20410;-79
2022/11/12 00:49:53;;;;;;;15.07;10.70;;;;;;;13.09;56.04;102809.22;5090983;28;20394;-78
2022/11/12 00:52:19;;;;;;;15.32;10.93;;;;;;;13.05;55.93;102802.47;5095371;28;20451;-79
2022/11/12 00:54:44;;;;;;;16.10;11.20;;;;;;;12.93;56.34;102798.25;5092813;28;20381;-80
2022/11/12 00:57:10;;;;;;;14.90;10.73;;;;;;;12.95;56.25;102801.59;5088600;28;20376;-79
2022/11/12 00:59:35;;;;;;;16.17;10.90;;;;;;;12.98;56.23;102793.34;5083786;28;20397;-79
2022/11/12 01:02:01;;;;;;;11.98;9.75;;;;;;;12.95;56.71;102798.94;5076508;28;20400;-77
2022/11/12 01:04:26;;;;;;;12.27;9.60;;;;;;;13.02;56.39;102810.75;5077822;28;20735;-78
2022/11/12 01:06:51;;;;;;;15.05;9.98;;;;;;;13.10;56.25;102804.72;5072450;28;20390;-80
2022/11/12 01:09:20;;;;;;;14.47;9.77;;;;;;;13.22;56.20;102806.31;5071332;28;22331;-79
2022/11/12 01:11:46;;;;;;;12.82;9.63;;;;;;;13.14;56.22;102807.00;5077674;28;20394;-79
2022/11/12 01:14:12;;;;;;;13.30;9.73;;;;;;;12.93;57.02;102799.06;5078534;28;20731;-79
2022/11/12 01:16:39;;;;;;;13.00;9.00;;;;;;;12.84;57.56;102807.00;5074113;28;20897;-80
2022/11/12 01:19:07;;;;;;;12.13;9.68;;;;;;;12.95;57.46;102812.25;5070277;28;20788;-78
2022/11/12 01:21:37;;;;;;;11.65;9.30;;;;;;;12.95;57.51;102805.09;5077242;28;20413;-78
2022/11/12 01:24:03;;;;;;;11.93;9.55;;;;;;;13.07;57.47;102805.00;5071167;28;20803;-78
2022/11/12 01:26:41;;;;;;;12.77;9.23;;;;;;;13.01;57.80;102801.06;5075296;28;20482;-78
2022/11/12 01:29:07;;;;;;;11.75;9.30;;;;;;;13.16;57.27;102790.88;5072897;28;20410;-79
2022/11/12 01:31:37;;;;;;;12.98;9.15;;;;;;;13.10;57.75;102796.75;5075596;28;20399;-78
2022/11/12 01:34:07;;;;;;;16.45;10.23;;;;;;;12.81;59.13;102802.81;5075314;28;20433;-78
2022/11/12 01:36:36;;;;;;;14.20;10.35;;;;;;;12.74;59.49;102804.31;5071044;28;20385;-78
2022/11/12 01:39:03;;;;;;;15.25;10.38;;;;;;;12.84;59.35;102810.53;5076457;28;20825;-78
2022/11/12 01:41:31;;;;;;;13.50;9.70;;;;;;;12.98;58.90;102801.31;5068227;28;20517;-77
2022/11/12 01:44:19;;;;;;;12.48;9.55;;;;;;;13.07;58.93;102803.19;5070847;28;20464;-78
2022/11/12 01:47:00;;;;;;;11.77;8.90;;;;;;;12.96;59.27;102801.47;5090354;28;20415;-79
2022/11/12 01:49:33;;;;;;;10.60;7.70;;;;;;;12.86;60.04;102794.44;5072281;28;20465;-79
2022/11/12 01:52:16;;;;;;;9.52;6.60;;;;;;;12.89;60.18;102799.47;5077357;28;20411;-79
2022/11/12 01:54:45;;;;;;;8.15;5.47;;;;;;;12.88;60.26;102793.31;5072861;28;20387;-80
2022/11/12 01:57:12;;;;;;;6.80;5.37;;;;;;;12.89;60.82;102803.00;5072832;28;20874;-80
2022/11/12 01:59:43;;;;;;;5.22;4.30;;;;;;;12.83;61.21;102803.50;5074064;28;20383;-80
2022/11/12 02:02:10;;;;;;;6.07;4.88;;;;;;;12.80;61.38;102803.75;5089792;28;20384;-80
2022/11/12 02:04:38;;;;;;;6.85;4.70;;;;;;;12.85;61.27;102806.88;5075593;28;20402;-80
2022/11/12 02:07:06;;;;;;;5.05;4.30;;;;;;;12.82;61.55;102801.84;5072492;28;20784;-80
2022/11/12 02:09:32;;;;;;;5.50;4.32;;;;;;;12.79;61.80;102797.59;5074388;28;20918;-80
2022/11/12 02:11:59;;;;;;;6.65;4.65;;;;;;;12.84;61.56;102802.53;5071091;28;20386;-79
2022/11/12 02:14:24;;;;;;;6.78;4.88;;;;;;;12.82;61.69;102815.16;5077476;28;20370;-79
2022/11/12 02:16:52;;;;;;;6.67;4.90;;;;;;;12.75;61.97;102819.31;5073894;28;20414;-79
2022/11/12 02:19:17;;;;;;;6.07;5.20;;;;;;;12.71;62.14;102817.88;5078378;28;20978;-80
2022/11/12 02:21:43;;;;;;;7.22;5.25;;;;;;;12.70;62.01;102802.91;5126200;22;20458;-80
2022/11/12 02:24:12;;;;;;;5.53;4.60;;;;;;;12.81;61.92;102803.63;5092347;28;20399;-79
2022/11/12 02:26:41;;;;;;;7.40;5.10;;;;;;;12.75;61.95;102804.19;5074522;28;20804;-78
2022/11/12 02:29:07;;;;;;;8.52;5.85;;;;;;;12.66;62.50;102797.00;5073919;28;20484;-78
2022/11/12 02:31:33;;;;;;;6.07;4.60;;;;;;;12.61;62.27;102791.22;5074202;28;20668;-78
2022/11/12 02:33:59;;;;;;;5.70;4.50;;;;;;;12.59;62.59;102801.16;5074605;28;20387;-79
2022/11/12 02:36:25;;;;;;;6.05;4.93;;;;;;;12.55;62.53;102805.03;5076785;28;20389;-80
2022/11/12 02:38:51;;;;;;;6.68;5.00;;;;;;;12.59;62.53;102793.19;5074440;28;20386;-80
2022/11/12 02:41:16;;;;;;;6.97;5.07;;;;;;;12.68;62.34;102779.06;5077046;28;20387;-79
2022/11/12 02:43:42;;;;;;;6.50;5.20;;;;;;;12.78;61.93;102798.59;5075630;28;20390;-80
2022/11/12 02:46:08;;;;;;;7.15;5.50;;;;;;;12.87;61.66;102794.28;5081642;28;20422;-80
2022/11/12 02:48:33;;;;;;;6.63;5.10;;;;;;;12.88;61.44;102800.47;5076312;28;20465;-81
2022/11/12 02:50:59;;;;;;;7.33;5.00;;;;;;;12.88;61.78;102801.28;5075279;28;20390;-80
2022/11/12 02:53:24;;;;;;;7.07;4.90;;;;;;;12.89;61.83;102805.66;5075451;28;20387;-81
2022/11/12 02:55:50;;;;;;;7.13;5.40;;;;;;;12.75;62.01;102806.84;5076686;28;20409;-80
2022/11/12 02:58:16;;;;;;;7.30;5.00;;;;;;;12.80;62.25;102809.94;5074368;28;20390;-81
2022/11/12 03:00:41;;;;;;;6.57;5.37;;;;;;;13.00;61.86;102823.34;5071168;28;20398;-80
2022/11/12 03:03:07;;;;;;;7.00;5.28;;;;;;;12.96;61.73;102812.13;5075381;28;20399;-80
2022/11/12 03:05:34;;;;;;;6.50;5.10;;;;;;;12.86;62.15;102807.75;5076214;28;20397;-79
2022/11/12 03:08:05;;;;;;;8.27;5.57;;;;;;;12.77;62.57;102815.53;5073669;28;20406;-81
2022/11/12 03:10:31;;;;;;;8.23;6.60;;;;;;;12.71;62.63;102833.84;5068702;28;20386;-81
2022/11/12 03:12:58;;;;;;;7.43;6.28;;;;;;;12.62;63.24;102833.66;5074379;28;20470;-80
2022/11/12 03:15:25;;;;;;;7.95;6.55;;;;;;;12.57;63.36;102832.38;5088346;28;20390;-79
2022/11/12 03:17:51;;;;;;;8.20;6.33;;;;;;;12.62;63.06;102833.66;5074780;28;20387;-80
2022/11/12 03:20:16;;;;;;;8.47;6.77;;;;;;;12.65;63.02;102837.88;5074701;28;20890;-80
2022/11/12 03:22:42;;;;;;;9.50;7.00;;;;;;;12.69;62.91;102835.78;5074304;28;20422;-80
2022/11/12 03:25:08;;;;;;;9.00;6.80;;;;;;;12.75;62.87;102833.47;5073484;28;20387;-82
2022/11/12 03:27:34;;;;;;;8.70;6.45;;;;;;;12.79;62.53;102842.84;5071215;28;20414;-80
2022/11/12 03:30:00;;;;;;;10.67;7.23;;;;;;;12.71;62.74;102834.69;5074009;28;20814;-80
2022/11/12 03:32:25;;;;;;;8.97;6.57;;;;;;;12.62;63.07;102832.81;5073216;28;20867;-81
2022/11/12 03:34:51;;;;;;;8.75;6.43;;;;;;;12.55;63.20;102832.50;5075034;28;20395;-81
2022/11/12 03:37:16;;;;;;;8.50;6.80;;;;;;;12.60;62.93;102826.78;5073815;28;20731;-81
2022/11/12 03:39:42;;;;;;;7.95;6.40;;;;;;;12.54;63.25;102832.63;5074762;28;20383;-80
2022/11/12 03:42:07;;;;;;;7.77;6.23;;;;;;;12.53;63.17;102829.13;5074057;28;20383;-80
2022/11/12 03:44:33;;;;;;;7.43;5.80;;;;;;;12.53;63.07;102838.91;5073302;28;20890;-79
2022/11/12 03:46:58;;;;;;;7.07;6.07;;;;;;;12.52;63.15;102842.56;5075483;28;20426;-78
2022/11/12 03:49:24;;;;;;;6.83;5.90;;;;;;;12.49;63.36;102846.31;5074914;28;20409;-77
2022/11/12 03:51:49;;;;;;;6.97;5.77;;;;;;;12.45;63.47;102849.38;5071690;28;20379;-78
2022/11/12 03:54:15;;;;;;;7.47;5.93;;;;;;;12.49;63.39;102842.81;5072455;28;20474;-78
2022/11/12 03:56:45;;;;;;;8.30;6.40;;;;;;;12.51;63.37;102832.88;5072995;28;20375;-77
2022/11/12 03:59:10;;;;;;;7.73;5.93;;;;;;;12.45;63.14;102826.28;5070851;28;20460;-77
2022/11/12 04:01:36;;;;;;;9.25;6.85;;;;;;;12.54;63.04;102828.16;5073949;28;20402;-76
2022/11/12 04:04:04;;;;;;;8.40;6.77;;;;;;;12.59;62.65;102833.09;5072419;28;20474;-77
2022/11/12 04:09:14;;;;;;;8.35;6.90;;;;;;;12.69;62.24;102838.44;5069093;28;20556;-76
2022/11/12 04:11:39;;;;;;;8.27;6.70;;;;;;;12.63;62.36;102834.50;5067285;28;20799;-77
2022/11/12 04:14:05;;;;;;;8.40;6.70;;;;;;;12.62;62.32;102835.47;5071064;28;20781;-76
2022/11/12 04:22:07;;;;;;;8.32;6.35;;;;;;;12.81;61.74;102834.75;5073694;28;20421;-77
2022/11/12 04:27:28;;;;;;;8.25;7.18;;;;;;;12.90;61.64;102831.28;5069652;28;20414;-77
2022/11/12 04:32:51;;;;;;;6.37;5.67;;;;;;;12.93;61.22;102830.19;5069856;28;20381;-77
2022/11/12 04:35:18;;;;;;;7.38;5.75;;;;;;;12.89;61.12;102826.09;5073067;28;20375;-75
2022/11/12 04:37:45;;;;;;;7.18;5.53;;;;;;;12.93;61.13;102825.69;5077102;28;20386;-76
2022/11/12 04:45:42;;;;;;;8.65;7.25;;;;;;;12.99;61.08;102824.31;5068952;28;20536;-78
2022/11/12 04:48:08;;;;;;;8.23;6.50;;;;;;;12.98;60.94;102833.25;5073288;28;20411;-77
2022/11/12 04:50:34;;;;;;;7.27;6.07;;;;;;;12.99;60.95;102825.16;5073611;28;20393;-76
2022/11/12 04:52:59;;;;;;;8.23;6.47;;;;;;;13.07;60.90;102820.97;5074164;28;20878;-77
2022/11/12 04:55:25;;;;;;;8.50;7.60;;;;;;;13.16;60.27;102822.81;5075020;28;20449;-76
2022/11/12 04:57:50;;;;;;;10.13;7.53;;;;;;;13.23;60.26;102833.78;5072974;28;20869;-76
2022/11/12 05:00:16;;;;;;;8.52;7.57;;;;;;;13.24;59.93;102820.34;5075888;28;20383;-76
2022/11/12 05:02:41;;;;;;;8.02;6.57;;;;;;;13.25;60.12;102827.34;5073386;28;20399;-77
2022/11/12 05:05:07;;;;;;;9.83;7.40;;;;;;;13.29;59.94;102828.75;5075890;28;20408;-76
2022/11/12 05:07:33;;;;;;;8.63;7.13;;;;;;;13.29;60.00;102827.91;5074609;28;20433;-76
2022/11/12 05:09:58;;;;;;;7.75;6.65;;;;;;;13.28;60.12;102823.56;5074995;28;20398;-77
2022/11/12 05:12:24;;;;;;;102.73;92.63;;;;;;;13.33;60.17;102829.38;5074014;28;20398;-76
2022/11/12 05:14:49;;;;;;;48.38;43.50;;;;;;;13.39;59.85;102828.81;5099309;28;20390;-76
2022/11/12 05:17:15;;;;;;;15.00;13.17;;;;;;;13.45;59.98;102830.09;5074744;28;20375;-77
2022/11/12 05:19:40;;;;;;;20.10;16.05;;;;;;;13.42;59.80;102825.06;5072750;28;21111;-77
2022/11/12 05:22:06;;;;;;;10.77;8.60;;;;;;;13.37;59.77;102822.78;5073972;28;20411;-78
2022/11/12 05:24:35;;;;;;;26.93;24.13;;;;;;;13.38;59.84;102830.63;5075768;28;20493;-78
2022/11/12 05:27:09;;;;;;;34.45;28.00;;;;;;;13.37;59.98;102828.94;5075301;28;20399;-78
2022/11/12 05:29:35;;;;;;;10.80;9.70;;;;;;;13.35;59.98;102830.91;5074757;28;20399;-77
2022/11/12 05:32:00;;;;;;;11.65;9.65;;;;;;;13.31;59.99;102829.50;5073946;28;20403;-77
2022/11/12 05:34:26;;;;;;;11.80;9.80;;;;;;;13.37;60.06;102836.09;5073467;28;20467;-77
2022/11/12 05:36:51;;;;;;;12.50;9.80;;;;;;;13.36;59.90;102835.28;5103363;28;20375;-78
2022/11/12 05:39:20;;;;;;;13.20;9.57;;;;;;;13.30;60.38;102841.09;5073448;28;20391;-78
2022/11/12 05:41:46;;;;;;;11.25;9.82;;;;;;;13.27;60.12;102845.84;5074599;28;21206;-77
2022/11/12 05:44:12;;;;;;;11.87;9.43;;;;;;;13.18;60.43;102848.34;5076326;28;20410;-77
2022/11/12 05:46:37;;;;;;;11.13;9.80;;;;;;;13.16;60.62;102850.31;5092690;28;20418;-76
2022/11/12 05:49:03;;;;;;;11.70;10.05;;;;;;;13.22;60.63;102850.72;5074141;28;20464;-76
2022/11/12 05:51:28;;;;;;;13.87;10.50;;;;;;;13.23;60.58;102852.44;5071255;28;20387;-76
2022/11/12 05:53:54;;;;;;;13.05;10.30;;;;;;;13.27;60.32;102853.84;5071665;28;20389;-77
2022/11/12 05:56:19;;;;;;;14.30;12.53;;;;;;;13.09;60.44;102849.16;5073255;28;20394;-76
2022/11/12 05:58:48;;;;;;;16.70;12.97;;;;;;;12.98;60.78;102859.88;5071696;28;20379;-77
2022/11/12 06:01:15;;;;;;;16.95;13.93;;;;;;;13.14;60.59;102857.59;5076923;28;20895;-77
2022/11/12 06:03:41;;;;;;;16.33;12.98;;;;;;;13.26;60.40;102855.66;5069494;28;20375;-78
2022/11/12 06:06:06;;;;;;;17.23;12.33;;;;;;;13.30;60.11;102851.75;5074909;28;20390;-75
2022/11/12 06:08:32;;;;;;;15.77;11.77;;;;;;;13.33;59.87;102858.66;5074601;28;20948;-76
2022/11/12 06:10:58;;;;;;;15.10;12.13;;;;;;;13.34;59.75;102863.88;5076356;28;20407;-76
2022/11/12 06:13:25;;;;;;;15.53;13.20;;;;;;;13.28;59.97;102860.88;5073261;28;20779;-76
2022/11/12 06:15:56;;;;;;;16.40;12.48;;;;;;;13.28;59.98;102864.34;5076772;28;20398;-77
2022/11/12 06:18:24;;;;;;;16.77;13.48;;;;;;;13.35;60.22;102870.03;5075600;28;20428;-76
2022/11/12 06:23:34;;;;;;;16.65;12.98;;;;;;;13.46;59.61;102874.41;5076884;28;20495;-77
2022/11/12 06:26:00;;;;;;;17.90;12.90;;;;;;;13.35;60.22;102878.84;5105623;28;20780;-79
2022/11/12 06:28:26;;;;;;;15.20;12.20;;;;;;;13.39;59.90;102871.44;5073078;28;20402;-76
2022/11/12 06:30:52;;;;;;;15.95;12.10;;;;;;;13.44;60.13;102876.38;5079709;28;20442;-77
2022/11/12 06:33:17;;;;;;;13.73;11.55;;;;;;;13.55;59.98;102878.91;5079807;28;20386;-77
2022/11/12 06:35:43;;;;;;;15.27;12.37;;;;;;;13.64;59.71;102891.41;5084998;28;20405;-77
2022/11/12 06:38:08;;;;;;;14.75;12.38;;;;;;;13.61;59.90;102894.34;5087420;28;20388;-77
2022/11/12 06:40:34;;;;;;;15.07;12.20;;;;;;;13.63;60.37;102899.53;5083374;28;20531;-78
2022/11/12 06:42:59;;;;;;;15.00;11.90;;;;;;;13.63;59.96;102899.53;5081174;28;20411;-76
2022/11/12 06:47:10;;;;;;;17.23;13.27;;;;;;;13.61;60.29;102907.66;5103801;27;20895;-75
2022/11/12 06:49:36;;;;;;;17.15;12.30;;;;;;;13.50;60.42;102908.63;5099484;28;20407;-76
2022/11/12 06:52:02;;;;;;;20.37;13.43;;;;;;;13.49;60.35;102911.44;5106185;28;20424;-77
2022/11/12 06:54:28;;;;;;;16.38;12.60;;;;;;;13.46;60.63;102909.88;5110351;28;20396;-76
2022/11/12 06:56:53;;;;;;;16.90;13.20;;;;;;;13.48;60.50;102907.09;5109672;28;20388;-76
2022/11/12 06:59:18;;;;;;;17.35;13.13;;;;;;;13.51;60.47;102915.66;5108554;28;20399;-78
2022/11/12 07:01:44;;;;;;;17.43;13.40;;;;;;;13.55;60.36;102924.22;5103082;28;20397;-76
2022/11/12 07:04:10;;;;;;;16.23;13.50;;;;;;;13.52;60.60;102921.81;5103076;28;20448;-77
2022/11/12 07:06:36;;;;;;;20.63;16.02;;;;;;;13.60;60.42;102927.31;5108803;28;20403;-76
2022/11/12 07:09:03;;;;;;;17.75;13.88;;;;;;;13.58;60.43;102919.47;5094240;28;20577;-77
2022/11/12 07:11:28;;;;;;;14.30;12.27;;;;;;;13.68;60.37;102931.97;5110410;28;20385;-77
2022/11/12 07:13:55;;;;;;;18.13;13.60;;;;;;;13.70;60.28;102927.34;5112817;28;20406;-76
2022/11/12 07:16:21;;;;;;;15.32;12.32;;;;;;;13.67;60.29;102933.81;5111114;28;20380;-78
2022/11/12 07:18:48;;;;;;;16.13;12.10;;;;;;;13.70;59.91;102928.19;5108037;28;20394;-76
2022/11/12 07:21:16;;;;;;;14.90;12.43;;;;;;;13.73;60.39;102927.06;5112032;28;20729;-77
2022/11/12 07:23:41;;;;;;;16.43;12.77;;;;;;;13.69;59.99;102926.50;5115394;28;20460;-78
2022/11/12 07:26:19;;;;;;;14.50;11.57;;;;;;;13.38;60.15;102921.22;5117189;28;20407;-77
2022/11/12 07:28:47;;;;;;;14.32;11.55;;;;;;;13.41;60.49;102922.75;5115469;28;20391;-76
2022/11/12 07:31:16;;;;;;;15.07;12.20;;;;;;;13.38;60.67;102915.06;5114092;28;20885;-77
2022/11/12 07:33:42;;;;;;;14.27;12.25;;;;;;;13.57;60.48;102924.91;5113818;28;20396;-77
2022/11/12 07:36:10;;;;;;;15.15;12.25;;;;;;;13.71;60.12;102923.72;5112376;28;20377;-79
2022/11/12 07:38:38;;;;;;;14.43;11.83;;;;;;;13.75;59.63;102923.28;5110703;28;20377;-78
2022/11/12 07:41:05;;;;;;;14.40;11.73;;;;;;;13.73;59.94;102927.06;5113181;28;20505;-77
2022/11/12 07:43:38;;;;;;;15.35;12.48;;;;;;;13.72;59.66;102925.38;5116669;28;20448;-78
2022/11/12 07:46:14;;;;;;;16.27;12.77;;;;;;;13.81;59.69;102921.06;5113570;28;20420;-79
2022/11/12 07:48:40;;;;;;;20.33;16.40;;;;;;;13.90;59.25;102931.75;5109553;28;20444;-78
2022/11/12 07:51:18;;;;;;;15.40;11.55;;;;;;;13.75;59.49;102938.44;5092524;28;20771;-78
2022/11/12 07:53:45;;;;;;;13.68;11.57;;;;;;;13.71;59.33;102939.69;5108050;28;20388;-77
2022/11/12 07:56:14;;;;;;;29.13;20.93;;;;;;;13.85;59.44;102939.31;5097101;28;20381;-79
2022/11/12 07:58:40;;;;;;;13.70;11.27;;;;;;;13.91;59.09;102956.59;5098935;28;20385;-79
2022/11/12 08:01:30;;;;;;;13.35;11.32;;;;;;;13.93;59.02;102941.28;5101609;28;20417;-78
2022/11/12 08:03:56;;;;;;;14.60;11.90;;;;;;;14.03;59.22;102946.66;5090206;28;20472;-77
2022/11/12 08:06:23;;;;;;;14.93;12.30;;;;;;;14.04;58.75;102941.16;5090234;28;20418;-77
2022/11/12 08:08:54;;;;;;;16.35;12.45;;;;;;;14.03;59.04;102941.31;5089695;28;20390;-78
2022/11/12 08:11:23;;;;;;;15.50;11.10;;;;;;;14.02;58.86;102935.13;5097628;28;20373;-78
2022/11/12 08:13:49;;;;;;;16.40;12.25;;;;;;;14.12;58.75;102938.66;5100918;28;20450;-78
2022/11/12 08:16:16;;;;;;;16.08;12.65;;;;;;;14.13;58.53;102936.81;5102433;28;20399;-77
2022/11/12 08:18:42;;;;;;;14.57;10.95;;;;;;;14.15;58.40;102934.84;5094647;28;20453;-78
2022/11/12 08:21:10;;;;;;;14.65;11.00;;;;;;;14.12;58.25;102936.00;5089567;28;20389;-77
2022/11/12 08:23:36;;;;;;;15.93;11.48;;;;;;;14.26;57.91;102936.53;5086835;28;20390;-78
2022/11/12 08:26:04;;;;;;;13.80;10.77;;;;;;;14.38;57.86;102935.44;5085465;28;20413;-79
2022/11/12 08:28:31;;;;;;;12.60;10.45;;;;;;;14.38;57.92;102932.75;5079267;28;20716;-78
2022/11/12 08:31:01;;;;;;;13.07;10.95;;;;;;;14.37;58.01;102931.09;5081720;28;20439;-79
2022/11/12 08:33:27;;;;;;;12.32;10.25;;;;;;;14.36;57.78;102937.41;5080811;28;20460;-79
2022/11/12 08:35:53;;;;;;;10.85;9.40;;;;;;;14.27;57.73;102941.75;5084252;28;20420;-78
2022/11/12 08:38:18;;;;;;;12.77;10.27;;;;;;;14.40;57.69;102937.97;5093592;28;20394;-78
2022/11/12 08:40:43;;;;;;;10.70;6.78;;;;;;;14.77;58.93;102939.94;5088470;28;20465;-78
2022/11/12 08:43:09;;;;;;;10.80;8.47;;;;;;;15.13;58.12;102942.81;5079005;28;20379;-78
2022/11/12 08:45:38;;;;;;;9.70;7.15;;;;;;;15.21;57.91;102938.41;5082220;28;20442;-78
2022/11/12 08:48:11;;;;;;;11.50;9.27;;;;;;;15.37;56.98;102942.28;5083257;28;20387;-77
2022/11/12 08:50:36;;;;;;;10.85;8.63;;;;;;;14.95;56.48;102943.56;5084452;28;20377;-79
2022/11/12 08:53:05;;;;;;;10.43;8.93;;;;;;;15.05;56.03;102949.72;5087475;28;20468;-78
2022/11/12 08:55:34;;;;;;;12.85;9.73;;;;;;;15.07;56.14;102960.25;5096565;28;20405;-77
2022/11/12 08:58:03;;;;;;;12.25;9.80;;;;;;;15.05;55.74;102963.06;5090147;28;20414;-79
2022/11/12 09:00:30;;;;;;;11.95;9.38;;;;;;;14.95;56.22;102961.41;5087566;28;20423;-79
2022/11/12 09:02:59;;;;;;;13.38;10.13;;;;;;;15.01;56.04;102974.19;5089147;28;20398;-78
2022/11/12 09:05:24;;;;;;;12.60;10.35;;;;;;;14.98;56.07;102963.78;5088397;28;20481;-80
2022/11/12 09:08:01;;;;;;;15.07;11.10;;;;;;;14.95;56.25;102956.06;5093254;28;20436;-79
2022/11/12 09:10:27;;;;;;;15.35;11.27;;;;;;;14.89;56.27;102957.47;5098605;28;20448;-79
2022/11/12 09:12:54;;;;;;;14.20;11.32;;;;;;;14.88;56.25;102958.47;5095511;28;20389;-78
2022/11/12 09:15:21;;;;;;;14.70;10.93;;;;;;;14.94;56.18;102965.91;5093611;28;20486;-78
2022/11/12 09:17:46;;;;;;;16.02;11.65;;;;;;;14.90;56.08;102960.00;5097563;28;20385;-79
2022/11/12 09:20:12;;;;;;;13.88;10.98;;;;;;;14.86;56.16;102963.13;5090330;28;20474;-78
2022/11/12 09:22:38;;;;;;;18.10;12.50;;;;;;;15.06;56.14;102966.59;5090218;28;20431;-79
2022/11/12 09:25:04;;;;;;;16.93;12.13;;;;;;;15.08;56.00;102954.75;5096207;28;20460;-79
2022/11/12 09:27:30;;;;;;;15.95;12.55;;;;;;;15.08;55.77;102965.44;5099572;28;20389;-81
2022/11/12 09:29:55;;;;;;;18.05;11.60;;;;;;;15.02;55.95;102960.69;5105202;28;20717;-79
2022/11/12 09:32:21;;;;;;;13.87;10.60;;;;;;;15.00;55.86;102962.66;5102441;28;20392;-79
2022/11/12 09:34:46;;;;;;;15.20;10.23;;;;;;;14.93;55.49;102953.53;5098510;28;20443;-80
2022/11/12 09:37:12;;;;;;;13.95;10.32;;;;;;;14.92;55.53;102954.50;5096357;28;20382;-80
2022/11/12 09:39:37;;;;;;;13.20;9.73;;;;;;;14.93;55.01;102958.88;5095852;28;20392;-78
2022/11/12 09:42:14;;;;;;;14.33;10.53;;;;;;;14.84;55.22;102965.91;5099338;28;20391;-79
2022/11/12 09:44:42;;;;;;;12.23;10.35;;;;;;;14.89;55.01;102958.34;5095551;28;20393;-79
2022/11/12 09:47:19;;;;;;;13.07;10.15;;;;;;;14.94;54.76;102960.56;5097624;28;20878;-80
2022/11/12 09:49:53;;;;;;;11.95;10.02;;;;;;;14.92;54.70;102949.19;5101971;28;20397;-78
2022/11/12 09:52:22;;;;;;;13.55;9.88;;;;;;;15.00;54.96;102957.31;5102540;28;20389;-80
2022/11/12 09:54:54;;;;;;;14.45;10.18;;;;;;;15.09;55.02;102952.94;5103854;28;20486;-78
2022/11/12 09:57:20;;;;;;;16.77;10.50;;;;;;;15.13;54.54;102946.31;5103549;28;20403;-79
2022/11/12 10:00:27;;;;;;;12.63;10.18;;;;;;;15.17;54.75;102938.84;5108124;28;20423;-79
2022/11/12 10:03:38;;;;;;;11.70;10.02;;;;;;;15.24;54.49;102931.94;5146237;23;20430;-80
2022/11/12 10:06:32;;;;;;;14.10;9.95;;;;;;;15.28;54.12;102934.16;5043210;28;20410;-79
2022/11/12 10:09:10;;;;;;;12.10;10.30;;;;;;;15.02;54.29;102944.66;5040814;28;20394;-80
2022/11/12 10:18:01;;;;;;;12.88;10.27;;;;;;;15.08;53.69;102925.38;5016572;28;20813;-79
2022/11/12 10:20:42;;;;;;;12.77;10.27;;;;;;;15.12;53.63;102925.09;5049559;28;20510;-79
2022/11/12 10:23:26;;;;;;;12.90;10.70;;;;;;;15.29;53.21;102925.16;5032657;28;20418;-80
2022/11/12 10:25:57;;;;;;;13.23;10.60;;;;;;;15.32;53.10;102923.19;5036162;28;20421;-80
2022/11/12 10:28:33;;;;;;;11.40;10.15;;;;;;;15.29;53.33;102929.69;5037443;28;20390;-79
2022/11/12 10:31:11;;;;;;;11.30;9.75;;;;;;;15.52;53.23;102924.78;5031600;28;20410;-79
2022/11/12 10:33:36;;;;;;;12.20;9.80;;;;;;;15.53;52.90;102925.63;5033491;28;20854;-79
2022/11/12 10:36:13;;;;;;;13.90;9.53;;;;;;;15.56;52.74;102930.69;5032123;28;20433;-78
2022/11/12 10:38:41;;;;;;;13.57;8.80;;;;;;;15.40;52.65;102928.66;5040054;28;20450;-78
2022/11/12 10:41:26;;;;;;;12.57;9.05;;;;;;;15.38;52.19;102931.47;5040015;28;20489;-80
2022/11/12 10:44:04;;;;;;;12.68;8.25;;;;;;;15.34;51.85;102926.53;5053570;28;20390;-79
2022/11/12 10:46:37;;;;;;;10.10;8.30;;;;;;;15.45;51.74;102931.72;5042107;28;20604;-79
2022/11/12 10:49:24;;;;;;;13.88;8.50;;;;;;;15.51;51.35;102932.97;5032072;28;20476;-80
2022/11/12 10:51:55;;;;;;;10.18;7.72;;;;;;;15.49;51.23;102928.59;5031606;28;20394;-79
2022/11/12 10:54:42;;;;;;;11.13;8.05;;;;;;;15.52;51.10;102926.59;5055999;28;20799;-80
2022/11/12 10:57:26;;;;;;;9.73;8.27;;;;;;;15.60;51.23;102935.56;5026622;28;20394;-79
2022/11/12 11:00:08;;;;;;;12.47;8.57;;;;;;;15.63;51.02;102919.25;5039062;28;20389;-81
2022/11/12 11:02:33;;;;;;;8.38;7.45;;;;;;;15.76;50.90;102921.59;5040326;28;20440;-80
2022/11/12 11:04:59;;;;;;;10.80;7.97;;;;;;;15.85;51.01;102920.69;5039539;28;20394;-78
2022/11/12 11:07:25;;;;;;;11.77;8.48;;;;;;;15.91;50.67;102911.19;5057238;28;20412;-81
2022/11/12 11:09:55;;;;;;;11.20;8.30;;;;;;;15.99;50.55;102907.75;5040938;28;20385;-79
2022/11/12 11:12:29;;;;;;;12.55;8.85;;;;;;;16.03;50.75;102914.50;5045280;28;20814;-80
2022/11/12 11:15:23;;;;;;;11.07;8.73;;;;;;;16.11;50.65;102916.41;5040998;28;20758;-77
2022/11/12 11:17:49;;;;;;;9.30;7.20;;;;;;;16.09;50.20;102913.06;5035149;28;20937;-78
2022/11/12 11:20:23;;;;;;;8.53;6.60;;;;;;;16.03;50.06;102911.84;5056720;28;20398;-79
2022/11/12 11:23:15;;;;;;;9.07;6.28;;;;;;;16.07;49.41;102904.34;5054565;28;20389;-79
2022/11/12 11:25:41;;;;;;;8.63;6.82;;;;;;;16.14;49.27;102908.09;5018718;28;20489;-80
2022/11/12 11:28:28;;;;;;;8.53;6.53;;;;;;;16.10;49.17;102899.53;5038068;28;20451;-80
2022/11/12 11:31:05;;;;;;;13.02;7.00;;;;;;;16.12;49.23;102894.88;5044549;28;20367;-80
2022/11/12 11:34:01;;;;;;;10.02;7.13;;;;;;;16.08;49.23;102892.63;5042480;28;20429;-80
2022/11/12 11:36:38;;;;;;;11.18;7.30;;;;;;;16.15;49.28;102889.22;5044861;28;20417;-81
2022/11/12 11:39:16;;;;;;;9.88;7.13;;;;;;;16.24;49.11;102882.06;5045534;28;20445;-80
2022/11/12 11:42:16;;;;;;;8.07;6.68;;;;;;;16.22;49.03;102884.94;5054742;28;20886;-79
2022/11/12 11:45:26;;;;;;;8.65;7.10;;;;;;;16.08;49.03;102890.81;5036994;28;20409;-80
2022/11/12 11:48:23;;;;;;;9.63;6.40;;;;;;;16.15;48.14;102899.91;5042922;28;20441;-81
2022/11/12 11:50:51;;;;;;;11.18;6.55;;;;;;;16.17;47.48;102900.59;4970862;28;20473;-79
2022/11/12 11:53:25;;;;;;;7.60;5.90;;;;;;;16.22;47.54;102898.31;5040257;28;20397;-80
2022/11/12 11:56:02;;;;;;;7.47;5.78;;;;;;;16.23;47.86;102893.78;5040223;28;20855;-81